sensor_id;sensor_type;location;lat;lon;timestamp;pressure;altitude;pressure_sealevel;temperature;humidity
17521;BME280;8878;-33.370;-70.552;2023-10-19T00:02:14;92351.84;;;15.85;74.95
17521;BME280;8878;-33.370;-70.552;2023-10-19T00:04:46;92347.69;;;15.79;76.45
17521;BME280;8878;-33.370;-70.552;2023-10-19T00:07:14;92349.66;;;15.73;77.13
17521;BME280;8878;-33.370;-70.552;2023-10-19T00:09:46;92353.47;;;15.67;77.81
17521;BME280;8878;-33.370;-70.552;2023-10-19T00:12:19;92351.72;;;15.62;76.80
17521;BME280;8878;-33.370;-70.552;2023-10-19T00:14:49;92351.59;;;15.49;75.67
17521;BME280;8878;-33.370;-70.552;2023-10-19T00:17:17;92355.19;;;15.25;76.35
17521;BME280;8878;-33.370;-70.552;2023-10-19T00:19:48;92347.28;;;15.02;76.98
17521;BME280;8878;-33.370;-70.552;2023-10-19T00:22:25;92354.38;;;14.87;77.41
17521;BME280;8878;-33.370;-70.552;2023-10-19T00:24:59;92359.19;;;14.85;77.75
17521;BME280;8878;-33.370;-70.552;2023-10-19T00:27:29;92357.25;;;14.91;77.09
17521;BME280;8878;-33.370;-70.552;2023-10-19T00:29:58;92368.69;;;14.92;76.60
17521;BME280;8878;-33.370;-70.552;2023-10-19T00:32:33;92366.66;;;14.83;76.87
17521;BME280;8878;-33.370;-70.552;2023-10-19T00:35:06;92366.34;;;14.85;77.31
17521;BME280;8878;-33.370;-70.552;2023-10-19T00:37:55;92366.66;;;14.83;77.72
17521;BME280;8878;-33.370;-70.552;2023-10-19T00:40:41;92368.38;;;14.74;79.39
17521;BME280;8878;-33.370;-70.552;2023-10-19T00:43:14;92376.31;;;14.56;80.39
17521;BME280;8878;-33.370;-70.552;2023-10-19T00:45:57;92374.81;;;14.44;79.86
17521;BME280;8878;-33.370;-70.552;2023-10-19T00:48:29;92375.41;;;14.41;80.38
17521;BME280;8878;-33.370;-70.552;2023-10-19T00:50:59;92375.09;;;14.43;80.77
17521;BME280;8878;-33.370;-70.552;2023-10-19T00:53:37;92380.06;;;14.49;80.95
17521;BME280;8878;-33.370;-70.552;2023-10-19T00:56:10;92381.81;;;14.59;83.13
17521;BME280;8878;-33.370;-70.552;2023-10-19T00:58:41;92377.25;;;14.65;84.13
17521;BME280;8878;-33.370;-70.552;2023-10-19T01:01:21;92380.75;;;14.60;85.36
17521;BME280;8878;-33.370;-70.552;2023-10-19T01:03:52;92378.38;;;14.59;85.50
17521;BME280;8878;-33.370;-70.552;2023-10-19T01:06:23;92378.91;;;14.61;85.13
17521;BME280;8878;-33.370;-70.552;2023-10-19T01:08:58;92381.66;;;14.50;83.76
17521;BME280;8878;-33.370;-70.552;2023-10-19T01:11:31;92384.25;;;14.32;84.17
17521;BME280;8878;-33.370;-70.552;2023-10-19T01:14:18;92384.16;;;14.42;86.23
17521;BME280;8878;-33.370;-70.552;2023-10-19T01:16:48;92385.50;;;14.39;87.12
17521;BME280;8878;-33.370;-70.552;2023-10-19T01:19:18;92389.75;;;14.35;88.29
17521;BME280;8878;-33.370;-70.552;2023-10-19T01:21:47;92387.44;;;14.29;88.84
17521;BME280;8878;-33.370;-70.552;2023-10-19T01:24:21;92385.09;;;14.27;88.27
17521;BME280;8878;-33.370;-70.552;2023-10-19T01:27:06;92391.75;;;14.25;88.07
17521;BME280;8878;-33.370;-70.552;2023-10-19T01:29:37;92383.41;;;14.07;87.20
17521;BME280;8878;-33.370;-70.552;2023-10-19T01:32:08;92383.25;;;13.99;85.66
17521;BME280;8878;-33.370;-70.552;2023-10-19T01:34:38;92385.06;;;14.03;88.19
17521;BME280;8878;-33.370;-70.552;2023-10-19T01:37:08;92384.09;;;13.94;85.36
17521;BME280;8878;-33.370;-70.552;2023-10-19T01:39:43;92384.47;;;13.83;86.44
17521;BME280;8878;-33.370;-70.552;2023-10-19T01:42:14;92377.25;;;13.88;88.85
17521;BME280;8878;-33.370;-70.552;2023-10-19T01:44:43;92379.84;;;13.93;89.13
17521;BME280;8878;-33.370;-70.552;2023-10-19T01:47:12;92373.25;;;13.91;89.26
17521;BME280;8878;-33.370;-70.552;2023-10-19T01:49:42;92381.25;;;13.57;89.58
17521;BME280;8878;-33.370;-70.552;2023-10-19T01:52:19;92376.56;;;13.44;91.54
17521;BME280;8878;-33.370;-70.552;2023-10-19T01:54:53;92381.25;;;13.57;92.81
17521;BME280;8878;-33.370;-70.552;2023-10-19T01:57:26;92379.91;;;13.59;90.62
17521;BME280;8878;-33.370;-70.552;2023-10-19T01:59:54;92378.31;;;13.58;91.34
17521;BME280;8878;-33.370;-70.552;2023-10-19T02:02:24;92375.13;;;13.61;91.30
17521;BME280;8878;-33.370;-70.552;2023-10-19T02:04:52;92374.59;;;13.59;90.25
17521;BME280;8878;-33.370;-70.552;2023-10-19T02:07:21;92356.28;;;13.63;90.13
17521;BME280;8878;-33.370;-70.552;2023-10-19T02:09:50;92372.31;;;13.48;89.24
17521;BME280;8878;-33.370;-70.552;2023-10-19T02:12:22;92372.69;;;13.31;90.74
17521;BME280;8878;-33.370;-70.552;2023-10-19T02:14:51;92366.53;;;13.41;92.64
17521;BME280;8878;-33.370;-70.552;2023-10-19T02:17:20;92354.03;;;13.46;93.03
17521;BME280;8878;-33.370;-70.552;2023-10-19T02:19:50;92354.88;;;13.42;92.09
17521;BME280;8878;-33.370;-70.552;2023-10-19T02:22:19;92358.59;;;13.41;92.06
17521;BME280;8878;-33.370;-70.552;2023-10-19T02:24:49;92357.06;;;13.29;89.19
17521;BME280;8878;-33.370;-70.552;2023-10-19T02:27:17;92350.22;;;13.28;91.44
17521;BME280;8878;-33.370;-70.552;2023-10-19T02:29:49;92351.28;;;13.27;90.66
17521;BME280;8878;-33.370;-70.552;2023-10-19T02:32:18;92350.97;;;13.34;91.73
17521;BME280;8878;-33.370;-70.552;2023-10-19T02:34:48;92357.91;;;13.25;90.20
17521;BME280;8878;-33.370;-70.552;2023-10-19T02:37:16;92347.03;;;13.26;92.02
17521;BME280;8878;-33.370;-70.552;2023-10-19T02:39:45;92353.34;;;13.36;92.68
17521;BME280;8878;-33.370;-70.552;2023-10-19T02:42:17;92352.28;;;13.31;92.60
17521;BME280;8878;-33.370;-70.552;2023-10-19T02:44:45;92348.06;;;13.30;92.90
17521;BME280;8878;-33.370;-70.552;2023-10-19T02:47:18;92348.09;;;13.25;93.76
17521;BME280;8878;-33.370;-70.552;2023-10-19T02:49:47;92357.22;;;13.14;94.77
17521;BME280;8878;-33.370;-70.552;2023-10-19T02:52:18;92354.00;;;13.12;94.75
17521;BME280;8878;-33.370;-70.552;2023-10-19T02:54:47;92348.22;;;13.05;94.22
17521;BME280;8878;-33.370;-70.552;2023-10-19T02:57:16;92350.91;;;13.00;95.99
17521;BME280;8878;-33.370;-70.552;2023-10-19T02:59:46;92349.88;;;12.96;97.89
17521;BME280;8878;-33.370;-70.552;2023-10-19T03:02:14;92344.59;;;12.91;97.30
17521;BME280;8878;-33.370;-70.552;2023-10-19T03:04:46;92339.94;;;12.73;95.97
17521;BME280;8878;-33.370;-70.552;2023-10-19T03:07:15;92334.94;;;12.66;96.27
17521;BME280;8878;-33.370;-70.552;2023-10-19T03:09:45;92329.09;;;12.74;98.21
17521;BME280;8878;-33.370;-70.552;2023-10-19T03:12:15;92335.13;;;12.80;98.91
17521;BME280;8878;-33.370;-70.552;2023-10-19T03:14:45;92330.66;;;12.75;98.03
17521;BME280;8878;-33.370;-70.552;2023-10-19T03:17:15;92335.66;;;12.82;100.00
17521;BME280;8878;-33.370;-70.552;2023-10-19T03:19:46;92329.09;;;12.74;100.00
17521;BME280;8878;-33.370;-70.552;2023-10-19T03:22:15;92337.84;;;12.65;100.00
17521;BME280;8878;-33.370;-70.552;2023-10-19T03:24:46;92329.72;;;12.51;100.00
17521;BME280;8878;-33.370;-70.552;2023-10-19T03:27:25;92322.66;;;12.36;100.00
17521;BME280;8878;-33.370;-70.552;2023-10-19T03:29:53;92324.84;;;12.24;100.00
17521;BME280;8878;-33.370;-70.552;2023-10-19T03:32:23;92319.84;;;12.18;100.00
17521;BME280;8878;-33.370;-70.552;2023-10-19T03:34:57;92314.22;;;12.29;100.00
17521;BME280;8878;-33.370;-70.552;2023-10-19T03:37:27;92320.81;;;12.37;100.00
17521;BME280;8878;-33.370;-70.552;2023-10-19T03:39:57;92317.38;;;12.36;100.00
17521;BME280;8878;-33.370;-70.552;2023-10-19T03:42:31;92318.97;;;12.32;100.00
17521;BME280;8878;-33.370;-70.552;2023-10-19T03:45:00;92312.09;;;12.31;100.00
17521;BME280;8878;-33.370;-70.552;2023-10-19T03:47:34;92312.63;;;12.33;100.00
17521;BME280;8878;-33.370;-70.552;2023-10-19T03:50:08;92308.94;;;12.34;100.00
17521;BME280;8878;-33.370;-70.552;2023-10-19T03:52:41;92320.88;;;12.27;100.00
17521;BME280;8878;-33.370;-70.552;2023-10-19T03:55:12;92306.63;;;12.18;100.00
17521;BME280;8878;-33.370;-70.552;2023-10-19T03:57:45;92302.41;;;12.11;100.00
17521;BME280;8878;-33.370;-70.552;2023-10-19T04:00:18;92304.28;;;12.06;100.00
17521;BME280;8878;-33.370;-70.552;2023-10-19T04:02:51;92302.72;;;12.05;100.00
17521;BME280;8878;-33.370;-70.552;2023-10-19T04:05:24;92298.22;;;12.05;100.00
17521;BME280;8878;-33.370;-70.552;2023-10-19T04:07:55;92301.69;;;11.91;100.00
17521;BME280;8878;-33.370;-70.552;2023-10-19T04:10:25;92297.72;;;11.88;100.00
17521;BME280;8878;-33.370;-70.552;2023-10-19T04:13:11;92296.44;;;11.86;100.00
17521;BME280;8878;-33.370;-70.552;2023-10-19T04:15:41;92294.28;;;11.88;100.00
17521;BME280;8878;-33.370;-70.552;2023-10-19T04:18:12;92295.34;;;11.87;100.00
17521;BME280;8878;-33.370;-70.552;2023-10-19T04:20:43;92291.16;;;11.86;100.00
17521;BME280;8878;-33.370;-70.552;2023-10-19T04:23:24;92289.56;;;11.80;100.00
17521;BME280;8878;-33.370;-70.552;2023-10-19T04:25:55;92289.03;;;11.67;100.00
17521;BME280;8878;-33.370;-70.552;2023-10-19T04:28:25;92276.38;;;11.59;100.00
17521;BME280;8878;-33.370;-70.552;2023-10-19T04:31:08;92287.75;;;11.65;100.00
17521;BME280;8878;-33.370;-70.552;2023-10-19T04:33:40;92283.78;;;11.52;100.00
17521;BME280;8878;-33.370;-70.552;2023-10-19T04:36:15;92273.25;;;11.47;100.00
17521;BME280;8878;-33.370;-70.552;2023-10-19T04:38:48;92265.81;;;11.54;100.00
17521;BME280;8878;-33.370;-70.552;2023-10-19T04:41:18;92257.31;;;11.67;100.00
17521;BME280;8878;-33.370;-70.552;2023-10-19T04:43:49;92251.78;;;11.69;100.00
17521;BME280;8878;-33.370;-70.552;2023-10-19T04:46:18;92251.28;;;11.62;100.00
17521;BME280;8878;-33.370;-70.552;2023-10-19T04:48:47;92244.16;;;11.57;100.00
17521;BME280;8878;-33.370;-70.552;2023-10-19T04:51:20;92239.13;;;11.56;100.00
17521;BME280;8878;-33.370;-70.552;2023-10-19T04:53:49;92230.94;;;11.57;100.00
17521;BME280;8878;-33.370;-70.552;2023-10-19T04:56:19;92238.34;;;11.55;100.00
17521;BME280;8878;-33.370;-70.552;2023-10-19T04:58:48;92236.56;;;11.35;100.00
17521;BME280;8878;-33.370;-70.552;2023-10-19T05:01:17;92228.41;;;11.12;100.00
17521;BME280;8878;-33.370;-70.552;2023-10-19T05:03:47;92239.22;;;11.10;100.00
17521;BME280;8878;-33.370;-70.552;2023-10-19T05:06:16;92214.94;;;11.18;100.00
17521;BME280;8878;-33.370;-70.552;2023-10-19T05:08:47;92212.25;;;11.23;100.00
17521;BME280;8878;-33.370;-70.552;2023-10-19T05:11:19;92219.69;;;11.21;100.00
17521;BME280;8878;-33.370;-70.552;2023-10-19T05:13:48;92222.53;;;11.30;100.00
17521;BME280;8878;-33.370;-70.552;2023-10-19T05:16:17;92210.94;;;11.36;100.00
17521;BME280;8878;-33.370;-70.552;2023-10-19T05:18:47;92211.72;;;11.31;100.00
17521;BME280;8878;-33.370;-70.552;2023-10-19T05:21:16;92212.59;;;11.07;100.00
17521;BME280;8878;-33.370;-70.552;2023-10-19T05:23:47;92210.50;;;10.93;100.00
17521;BME280;8878;-33.370;-70.552;2023-10-19T05:26:17;92204.41;;;10.93;100.00
17521;BME280;8878;-33.370;-70.552;2023-10-19T05:28:46;92199.63;;;11.10;100.00
17521;BME280;8878;-33.370;-70.552;2023-10-19T05:31:15;92189.81;;;11.26;100.00
17521;BME280;8878;-33.370;-70.552;2023-10-19T05:33:45;92197.22;;;11.29;100.00
17521;BME280;8878;-33.370;-70.552;2023-10-19T05:36:15;92190.59;;;11.31;100.00
17521;BME280;8878;-33.370;-70.552;2023-10-19T05:38:46;92191.94;;;11.24;100.00
17521;BME280;8878;-33.370;-70.552;2023-10-19T05:41:18;92186.16;;;11.02;100.00
17521;BME280;8878;-33.370;-70.552;2023-10-19T05:43:48;92181.72;;;10.87;100.00
17521;BME280;8878;-33.370;-70.552;2023-10-19T05:46:18;92168.78;;;10.80;100.00
17521;BME280;8878;-33.370;-70.552;2023-10-19T05:48:48;92169.56;;;10.96;100.00
17521;BME280;8878;-33.370;-70.552;2023-10-19T05:51:18;92165.63;;;10.93;100.00
17521;BME280;8878;-33.370;-70.552;2023-10-19T05:53:50;92159.81;;;10.81;100.00
17521;BME280;8878;-33.370;-70.552;2023-10-19T05:56:19;92153.25;;;10.79;100.00
17521;BME280;8878;-33.370;-70.552;2023-10-19T05:58:49;92145.84;;;10.76;100.00
17521;BME280;8878;-33.370;-70.552;2023-10-19T06:01:20;92151.38;;;10.84;100.00
17521;BME280;8878;-33.370;-70.552;2023-10-19T06:03:50;92148.19;;;10.87;100.00
17521;BME280;8878;-33.370;-70.552;2023-10-19T06:06:20;92142.94;;;10.77;100.00
17521;BME280;8878;-33.370;-70.552;2023-10-19T06:08:51;92133.44;;;10.66;100.00
17521;BME280;8878;-33.370;-70.552;2023-10-19T06:11:20;92131.38;;;10.58;100.00
17521;BME280;8878;-33.370;-70.552;2023-10-19T06:13:50;92123.97;;;10.60;100.00
17521;BME280;8878;-33.370;-70.552;2023-10-19T06:16:19;92115.50;;;10.73;100.00
17521;BME280;8878;-33.370;-70.552;2023-10-19T06:18:48;92114.69;;;10.83;100.00
17521;BME280;8878;-33.370;-70.552;2023-10-19T06:21:18;92115.00;;;10.71;100.00
17521;BME280;8878;-33.370;-70.552;2023-10-19T06:23:49;92105.50;;;10.55;100.00
17521;BME280;8878;-33.370;-70.552;2023-10-19T06:26:20;92103.91;;;10.64;100.00
17521;BME280;8878;-33.370;-70.552;2023-10-19T06:28:49;92098.34;;;10.76;100.00
17521;BME280;8878;-33.370;-70.552;2023-10-19T06:31:24;92095.19;;;10.79;100.00
17521;BME280;8878;-33.370;-70.552;2023-10-19T06:33:55;92097.28;;;10.77;100.00
17521;BME280;8878;-33.370;-70.552;2023-10-19T06:36:25;92090.19;;;10.62;100.00
17521;BME280;8878;-33.370;-70.552;2023-10-19T06:38:57;92081.75;;;10.65;100.00
17521;BME280;8878;-33.370;-70.552;2023-10-19T06:41:33;92076.69;;;10.74;100.00
17521;BME280;8878;-33.370;-70.552;2023-10-19T06:44:03;92065.88;;;10.80;100.00
17521;BME280;8878;-33.370;-70.552;2023-10-19T06:46:32;92050.81;;;10.81;100.00
17521;BME280;8878;-33.370;-70.552;2023-10-19T06:49:02;92052.16;;;10.78;100.00
17521;BME280;8878;-33.370;-70.552;2023-10-19T06:51:32;92052.16;;;10.73;100.00
17521;BME280;8878;-33.370;-70.552;2023-10-19T06:54:05;92046.13;;;10.73;100.00
17521;BME280;8878;-33.370;-70.552;2023-10-19T06:56:35;92050.59;;;10.67;100.00
17521;BME280;8878;-33.370;-70.552;2023-10-19T06:59:05;92046.94;;;10.53;100.00
17521;BME280;8878;-33.370;-70.552;2023-10-19T07:01:35;92044.06;;;10.49;100.00
17521;BME280;8878;-33.370;-70.552;2023-10-19T07:04:04;92043.81;;;10.41;100.00
17521;BME280;8878;-33.370;-70.552;2023-10-19T07:06:34;92039.63;;;10.30;100.00
17521;BME280;8878;-33.370;-70.552;2023-10-19T07:09:07;92029.59;;;10.37;100.00
17521;BME280;8878;-33.370;-70.552;2023-10-19T07:11:37;92034.81;;;10.47;100.00
17521;BME280;8878;-33.370;-70.552;2023-10-19T07:14:06;92027.47;;;10.44;100.00
17521;BME280;8878;-33.370;-70.552;2023-10-19T07:16:37;92023.78;;;10.14;100.00
17521;BME280;8878;-33.370;-70.552;2023-10-19T07:19:06;92029.06;;;10.19;100.00
17521;BME280;8878;-33.370;-70.552;2023-10-19T07:21:36;92026.97;;;10.22;100.00
17521;BME280;8878;-33.370;-70.552;2023-10-19T07:24:11;92032.72;;;10.39;100.00
17521;BME280;8878;-33.370;-70.552;2023-10-19T07:26:40;92029.56;;;10.42;100.00
17521;BME280;8878;-33.370;-70.552;2023-10-19T07:29:20;92039.34;;;10.36;100.00
17521;BME280;8878;-33.370;-70.552;2023-10-19T07:31:50;92039.09;;;10.28;100.00
17521;BME280;8878;-33.370;-70.552;2023-10-19T07:34:22;92024.84;;;10.29;100.00
17521;BME280;8878;-33.370;-70.552;2023-10-19T07:36:55;92031.16;;;10.33;100.00
17521;BME280;8878;-33.370;-70.552;2023-10-19T07:39:27;92029.56;;;10.32;100.00
17521;BME280;8878;-33.370;-70.552;2023-10-19T07:42:00;92014.31;;;10.24;100.00
17521;BME280;8878;-33.370;-70.552;2023-10-19T07:44:33;92025.41;;;10.20;100.00
17521;BME280;8878;-33.370;-70.552;2023-10-19T07:47:04;92026.97;;;10.22;100.00
17521;BME280;8878;-33.370;-70.552;2023-10-19T07:49:36;92016.44;;;10.22;100.00
17521;BME280;8878;-33.370;-70.552;2023-10-19T07:52:07;92021.16;;;10.14;100.00
17521;BME280;8878;-33.370;-70.552;2023-10-19T07:54:39;92016.41;;;10.11;100.00
17521;BME280;8878;-33.370;-70.552;2023-10-19T07:57:08;92017.47;;;10.15;100.00
17521;BME280;8878;-33.370;-70.552;2023-10-19T07:59:39;92017.47;;;10.15;100.00
17521;BME280;8878;-33.370;-70.552;2023-10-19T08:02:09;92009.03;;;10.08;100.00
17521;BME280;8878;-33.370;-70.552;2023-10-19T08:04:38;92014.84;;;10.00;100.00
17521;BME280;8878;-33.370;-70.552;2023-10-19T08:07:08;92017.72;;;9.89;100.00
17521;BME280;8878;-33.370;-70.552;2023-10-19T08:09:39;92010.63;;;9.94;100.00
17521;BME280;8878;-33.370;-70.552;2023-10-19T08:12:08;92010.38;;;10.01;100.00
17521;BME280;8878;-33.370;-70.552;2023-10-19T08:14:40;92003.00;;;9.93;100.00
17521;BME280;8878;-33.370;-70.552;2023-10-19T08:17:10;92009.31;;;9.92;100.00
17521;BME280;8878;-33.370;-70.552;2023-10-19T08:19:39;92004.84;;;9.87;100.00
17521;BME280;8878;-33.370;-70.552;2023-10-19T08:22:09;92009.56;;;9.90;100.00
17521;BME280;8878;-33.370;-70.552;2023-10-19T08:24:40;92008.50;;;9.96;100.00
17521;BME280;8878;-33.370;-70.552;2023-10-19T08:27:12;92002.97;;;9.98;100.00
17521;BME280;8878;-33.370;-70.552;2023-10-19T08:29:42;92005.38;;;9.94;100.00
17521;BME280;8878;-33.370;-70.552;2023-10-19T08:32:12;92002.97;;;9.98;100.00
17521;BME280;8878;-33.370;-70.552;2023-10-19T08:34:43;91996.66;;;9.94;100.00
17521;BME280;8878;-33.370;-70.552;2023-10-19T08:37:12;91995.63;;;9.85;100.00
17521;BME280;8878;-33.370;-70.552;2023-10-19T08:39:43;91999.03;;;9.75;100.00
17521;BME280;8878;-33.370;-70.552;2023-10-19T08:42:12;92001.13;;;9.68;100.00
17521;BME280;8878;-33.370;-70.552;2023-10-19T08:44:42;91993.50;;;9.46;100.00
17521;BME280;8878;-33.370;-70.552;2023-10-19T08:47:12;91975.88;;;9.52;100.00
17521;BME280;8878;-33.370;-70.552;2023-10-19T08:49:42;91982.19;;;9.66;100.00
17521;BME280;8878;-33.370;-70.552;2023-10-19T08:52:13;91968.75;;;9.62;99.23
17521;BME280;8878;-33.370;-70.552;2023-10-19T08:54:45;91954.25;;;9.60;98.68
17521;BME280;8878;-33.370;-70.552;2023-10-19T08:57:15;91957.97;;;9.59;100.00
17521;BME280;8878;-33.370;-70.552;2023-10-19T08:59:45;91954.28;;;9.50;98.03
17521;BME280;8878;-33.370;-70.552;2023-10-19T09:02:16;91952.41;;;9.40;97.76
17521;BME280;8878;-33.370;-70.552;2023-10-19T09:04:48;91945.56;;;9.29;96.70
17521;BME280;8878;-33.370;-70.552;2023-10-19T09:07:18;91936.34;;;9.26;95.93
17521;BME280;8878;-33.370;-70.552;2023-10-19T09:09:49;91932.41;;;9.34;97.69
17521;BME280;8878;-33.370;-70.552;2023-10-19T09:12:19;91935.28;;;9.32;96.21
17521;BME280;8878;-33.370;-70.552;2023-10-19T09:14:48;91926.34;;;9.33;96.34
17521;BME280;8878;-33.370;-70.552;2023-10-19T09:17:28;91933.19;;;9.34;95.62
17521;BME280;8878;-33.370;-70.552;2023-10-19T09:20:00;91932.13;;;9.25;95.43
17521;BME280;8878;-33.370;-70.552;2023-10-19T09:22:37;91932.41;;;9.14;93.88
17521;BME280;8878;-33.370;-70.552;2023-10-19T09:25:13;91931.59;;;9.13;94.67
17521;BME280;8878;-33.370;-70.552;2023-10-19T09:27:42;91924.75;;;9.12;94.83
17521;BME280;8878;-33.370;-70.552;2023-10-19T09:30:14;91928.72;;;9.20;94.31
17521;BME280;8878;-33.370;-70.552;2023-10-19T09:32:47;91931.09;;;9.21;91.94
17521;BME280;8878;-33.370;-70.552;2023-10-19T09:35:17;91921.63;;;9.30;88.34
17521;BME280;8878;-33.370;-70.552;2023-10-19T09:37:48;91915.81;;;9.38;92.30
17521;BME280;8878;-33.370;-70.552;2023-10-19T09:40:19;91922.91;;;9.38;94.33
17521;BME280;8878;-33.370;-70.552;2023-10-19T09:42:53;91926.88;;;9.40;93.55
17521;BME280;8878;-33.370;-70.552;2023-10-19T09:45:28;91921.63;;;9.40;94.05
17521;BME280;8878;-33.370;-70.552;2023-10-19T09:48:02;91922.38;;;9.31;92.76
17521;BME280;8878;-33.370;-70.552;2023-10-19T09:50:34;91926.34;;;9.33;90.65
17521;BME280;8878;-33.370;-70.552;2023-10-19T09:53:04;91921.59;;;9.46;93.45
17521;BME280;8878;-33.370;-70.552;2023-10-19T09:55:39;91927.94;;;9.39;93.23
17521;BME280;8878;-33.370;-70.552;2023-10-19T09:58:15;91916.88;;;9.27;94.12
17521;BME280;8878;-33.370;-70.552;2023-10-19T10:00:45;91912.66;;;9.31;92.55
17521;BME280;8878;-33.370;-70.552;2023-10-19T10:03:43;91915.84;;;9.43;88.22
17521;BME280;8878;-33.370;-70.552;2023-10-19T10:06:16;91908.94;;;9.68;91.07
17521;BME280;8878;-33.370;-70.552;2023-10-19T10:08:47;91916.06;;;9.62;92.61
17521;BME280;8878;-33.370;-70.552;2023-10-19T10:11:19;91920.03;;;9.50;95.99
17521;BME280;8878;-33.370;-70.552;2023-10-19T10:13:50;91915.84;;;9.43;95.05
17521;BME280;8878;-33.370;-70.552;2023-10-19T10:16:21;91915.81;;;9.28;91.98
17521;BME280;8878;-33.370;-70.552;2023-10-19T10:18:54;91916.09;;;9.37;96.31
17521;BME280;8878;-33.370;-70.552;2023-10-19T10:21:26;91913.19;;;9.38;95.52
17521;BME280;8878;-33.370;-70.552;2023-10-19T10:23:57;91910.81;;;9.32;94.03
17521;BME280;8878;-33.370;-70.552;2023-10-19T10:26:30;91908.69;;;9.39;96.37
17521;BME280;8878;-33.370;-70.552;2023-10-19T10:29:11;91912.91;;;9.40;94.93
17521;BME280;8878;-33.370;-70.552;2023-10-19T10:31:47;91908.97;;;9.48;92.54
17521;BME280;8878;-33.370;-70.552;2023-10-19T10:34:43;91914.50;;;9.56;93.61
17521;BME280;8878;-33.370;-70.552;2023-10-19T10:37:13;91903.97;;;9.51;93.70
17521;BME280;8878;-33.370;-70.552;2023-10-19T10:39:42;91907.91;;;9.49;91.58
17521;BME280;8878;-33.370;-70.552;2023-10-19T10:42:17;91903.19;;;9.51;90.63
17521;BME280;8878;-33.370;-70.552;2023-10-19T10:44:47;91909.47;;;9.60;90.24
17521;BME280;8878;-33.370;-70.552;2023-10-19T10:47:20;91902.63;;;9.69;89.56
17521;BME280;8878;-33.370;-70.552;2023-10-19T10:49:52;91913.16;;;9.79;89.88
17521;BME280;8878;-33.370;-70.552;2023-10-19T10:52:29;91904.44;;;9.73;85.75
17521;BME280;8878;-33.370;-70.552;2023-10-19T10:55:08;91906.84;;;9.70;82.23
17521;BME280;8878;-33.370;-70.552;2023-10-19T10:57:40;91910.50;;;9.94;82.93
17521;BME280;8878;-33.370;-70.552;2023-10-19T11:00:11;91919.69;;;10.07;83.60
17521;BME280;8878;-33.370;-70.552;2023-10-19T11:02:43;91920.97;;;10.09;83.34
17521;BME280;8878;-33.370;-70.552;2023-10-19T11:05:14;91907.53;;;10.16;79.31
17521;BME280;8878;-33.370;-70.552;2023-10-19T11:08:03;91911.72;;;10.32;82.71
17521;BME280;8878;-33.370;-70.552;2023-10-19T11:10:33;91918.56;;;10.43;78.05
17521;BME280;8878;-33.370;-70.552;2023-10-19T11:13:05;91919.72;;;10.76;78.15
17521;BME280;8878;-33.370;-70.552;2023-10-19T11:15:35;91923.47;;;11.09;77.68
17521;BME280;8878;-33.370;-70.552;2023-10-19T11:18:06;91935.19;;;11.32;73.72
17521;BME280;8878;-33.370;-70.552;2023-10-19T11:20:36;91930.81;;;11.51;71.57
17521;BME280;8878;-33.370;-70.552;2023-10-19T11:23:05;91934.88;;;11.72;71.12
17521;BME280;8878;-33.370;-70.552;2023-10-19T11:25:35;91930.00;;;11.90;73.74
17521;BME280;8878;-33.370;-70.552;2023-10-19T11:28:16;91932.00;;;12.03;77.56
17521;BME280;8878;-33.370;-70.552;2023-10-19T11:30:48;91925.31;;;12.10;75.06
17521;BME280;8878;-33.370;-70.552;2023-10-19T11:33:20;91922.78;;;12.24;77.25
17521;BME280;8878;-33.370;-70.552;2023-10-19T11:35:52;91928.47;;;12.36;73.42
17521;BME280;8878;-33.370;-70.552;2023-10-19T11:38:22;91925.66;;;12.51;76.72
17521;BME280;8878;-33.370;-70.552;2023-10-19T11:40:51;91928.75;;;12.59;75.73
17521;BME280;8878;-33.370;-70.552;2023-10-19T11:43:22;91932.28;;;12.73;76.14
17521;BME280;8878;-33.370;-70.552;2023-10-19T11:45:51;91924.75;;;12.85;75.43
17521;BME280;8878;-33.370;-70.552;2023-10-19T11:48:21;91925.91;;;12.98;76.79
17521;BME280;8878;-33.370;-70.552;2023-10-19T11:50:50;91931.56;;;13.10;76.22
17521;BME280;8878;-33.370;-70.552;2023-10-19T11:53:20;91919.28;;;13.19;75.16
17521;BME280;8878;-33.370;-70.552;2023-10-19T11:55:49;91927.84;;;13.29;76.70
17521;BME280;8878;-33.370;-70.552;2023-10-19T11:58:19;91925.63;;;13.37;77.65
17521;BME280;8878;-33.370;-70.552;2023-10-19T12:00:51;91923.50;;;13.39;77.39
17521;BME280;8878;-33.370;-70.552;2023-10-19T12:03:21;91920.84;;;13.39;78.22
17521;BME280;8878;-33.370;-70.552;2023-10-19T12:05:52;91922.34;;;13.45;77.73
17521;BME280;8878;-33.370;-70.552;2023-10-19T12:08:22;91927.00;;;13.53;75.72
17521;BME280;8878;-33.370;-70.552;2023-10-19T12:10:52;91914.56;;;13.67;73.82
17521;BME280;8878;-33.370;-70.552;2023-10-19T12:13:22;91924.38;;;13.85;71.46
17521;BME280;8878;-33.370;-70.552;2023-10-19T12:15:54;91921.94;;;14.02;70.86
17521;BME280;8878;-33.370;-70.552;2023-10-19T12:18:24;91924.44;;;14.13;69.27
17521;BME280;8878;-33.370;-70.552;2023-10-19T12:20:56;91927.16;;;14.21;68.42
17521;BME280;8878;-33.370;-70.552;2023-10-19T12:23:26;91928.06;;;14.30;65.79
17521;BME280;8878;-33.370;-70.552;2023-10-19T12:25:57;91929.50;;;14.41;64.89
17521;BME280;8878;-33.370;-70.552;2023-10-19T12:28:30;91927.94;;;14.54;66.11
17521;BME280;8878;-33.370;-70.552;2023-10-19T12:31:01;91912.41;;;14.61;64.37
17521;BME280;8878;-33.370;-70.552;2023-10-19T12:33:32;91912.50;;;14.70;59.93
17521;BME280;8878;-33.370;-70.552;2023-10-19T12:36:01;91923.69;;;14.80;58.12
17521;BME280;8878;-33.370;-70.552;2023-10-19T12:38:49;91927.75;;;14.92;57.96
17521;BME280;8878;-33.370;-70.552;2023-10-19T12:41:19;91930.00;;;14.98;52.92
17521;BME280;8878;-33.370;-70.552;2023-10-19T12:43:48;91915.88;;;15.11;53.37
17521;BME280;8878;-33.370;-70.552;2023-10-19T12:46:21;91914.16;;;15.29;49.84
17521;BME280;8878;-33.370;-70.552;2023-10-19T12:48:51;91916.75;;;15.56;49.75
17521;BME280;8878;-33.370;-70.552;2023-10-19T12:51:22;91926.94;;;15.77;45.96
17521;BME280;8878;-33.370;-70.552;2023-10-19T12:53:52;91920.78;;;15.90;46.34
17521;BME280;8878;-33.370;-70.552;2023-10-19T12:56:21;91923.16;;;16.00;46.15
17521;BME280;8878;-33.370;-70.552;2023-10-19T12:58:51;91920.88;;;16.07;44.69
17521;BME280;8878;-33.370;-70.552;2023-10-19T13:01:23;91922.94;;;16.10;45.21